sensor_id;sensor_type;location;lat;lon;timestamp;P1;durP1;ratioP1;P2;durP2;ratioP2
61391;SDS011;47261;52.892;5.738;2024-02-16T00:02:16;9.87;;;3.10;;
61391;SDS011;47261;52.892;5.738;2024-02-16T00:04:43;13.53;;;3.57;;
61391;SDS011;47261;52.892;5.738;2024-02-16T00:07:09;10.25;;;2.95;;
61391;SDS011;47261;52.892;5.738;2024-02-16T00:09:34;7.22;;;3.10;;
61391;SDS011;47261;52.892;5.738;2024-02-16T00:12:00;9.57;;;3.20;;
61391;SDS011;47261;52.892;5.738;2024-02-16T00:14:26;7.15;;;2.95;;
61391;SDS011;47261;52.892;5.738;2024-02-16T00:16:52;11.30;;;2.90;;
61391;SDS011;47261;52.892;5.738;2024-02-16T00:19:17;11.07;;;2.97;;
61391;SDS011;47261;52.892;5.738;2024-02-16T00:21:43;8.80;;;2.90;;
61391;SDS011;47261;52.892;5.738;2024-02-16T00:24:09;9.33;;;2.67;;
61391;SDS011;47261;52.892;5.738;2024-02-16T00:26:35;10.05;;;3.00;;
61391;SDS011;47261;52.892;5.738;2024-02-16T00:29:01;11.30;;;3.00;;
61391;SDS011;47261;52.892;5.738;2024-02-16T00:31:26;11.03;;;3.07;;
61391;SDS011;47261;52.892;5.738;2024-02-16T00:33:52;12.10;;;2.65;;
61391;SDS011;47261;52.892;5.738;2024-02-16T00:36:17;7.83;;;2.90;;
61391;SDS011;47261;52.892;5.738;2024-02-16T00:38:43;9.18;;;2.35;;
61391;SDS011;47261;52.892;5.738;2024-02-16T00:41:16;9.20;;;2.80;;
61391;SDS011;47261;52.892;5.738;2024-02-16T00:43:43;10.68;;;2.50;;
61391;SDS011;47261;52.892;5.738;2024-02-16T00:46:10;6.80;;;2.47;;
61391;SDS011;47261;52.892;5.738;2024-02-16T00:48:36;8.57;;;3.17;;
61391;SDS011;47261;52.892;5.738;2024-02-16T00:51:01;11.05;;;2.47;;
61391;SDS011;47261;52.892;5.738;2024-02-16T00:53:27;7.07;;;2.70;;
61391;SDS011;47261;52.892;5.738;2024-02-16T00:55:52;7.18;;;3.00;;
61391;SDS011;47261;52.892;5.738;2024-02-16T00:58:18;6.27;;;2.37;;
61391;SDS011;47261;52.892;5.738;2024-02-16T01:00:44;8.77;;;2.40;;
61391;SDS011;47261;52.892;5.738;2024-02-16T01:03:10;8.43;;;2.47;;
61391;SDS011;47261;52.892;5.738;2024-02-16T01:05:38;20.40;;;3.00;;
61391;SDS011;47261;52.892;5.738;2024-02-16T01:08:05;8.45;;;2.42;;
61391;SDS011;47261;52.892;5.738;2024-02-16T01:10:31;7.20;;;2.47;;
61391;SDS011;47261;52.892;5.738;2024-02-16T01:12:56;8.30;;;2.53;;
61391;SDS011;47261;52.892;5.738;2024-02-16T01:15:22;8.60;;;2.77;;
61391;SDS011;47261;52.892;5.738;2024-02-16T01:17:47;10.35;;;2.58;;
61391;SDS011;47261;52.892;5.738;2024-02-16T01:20:13;7.27;;;2.07;;
61391;SDS011;47261;52.892;5.738;2024-02-16T01:22:39;7.63;;;2.30;;
61391;SDS011;47261;52.892;5.738;2024-02-16T01:25:05;11.47;;;2.87;;
61391;SDS011;47261;52.892;5.738;2024-02-16T01:27:32;6.50;;;2.20;;
61391;SDS011;47261;52.892;5.738;2024-02-16T01:29:58;6.95;;;2.08;;
61391;SDS011;47261;52.892;5.738;2024-02-16T01:32:23;7.87;;;2.33;;
61391;SDS011;47261;52.892;5.738;2024-02-16T01:34:49;7.63;;;2.33;;
61391;SDS011;47261;52.892;5.738;2024-02-16T01:37:15;7.50;;;2.33;;
61391;SDS011;47261;52.892;5.738;2024-02-16T01:39:40;6.03;;;2.10;;
61391;SDS011;47261;52.892;5.738;2024-02-16T01:42:07;6.93;;;2.07;;
61391;SDS011;47261;52.892;5.738;2024-02-16T01:44:33;6.28;;;2.10;;
61391;SDS011;47261;52.892;5.738;2024-02-16T01:46:58;6.67;;;2.03;;
61391;SDS011;47261;52.892;5.738;2024-02-16T01:49:24;6.93;;;2.33;;
61391;SDS011;47261;52.892;5.738;2024-02-16T01:51:49;9.17;;;2.43;;
61391;SDS011;47261;52.892;5.738;2024-02-16T01:54:15;7.97;;;2.70;;
61391;SDS011;47261;52.892;5.738;2024-02-16T01:56:43;8.15;;;2.50;;
61391;SDS011;47261;52.892;5.738;2024-02-16T01:59:09;8.43;;;2.37;;
61391;SDS011;47261;52.892;5.738;2024-02-16T02:01:35;9.45;;;2.60;;
61391;SDS011;47261;52.892;5.738;2024-02-16T02:04:01;8.63;;;2.00;;
61391;SDS011;47261;52.892;5.738;2024-02-16T02:06:27;8.67;;;2.33;;
61391;SDS011;47261;52.892;5.738;2024-02-16T02:08:53;5.28;;;2.40;;
61391;SDS011;47261;52.892;5.738;2024-02-16T02:11:18;6.50;;;2.07;;
61391;SDS011;47261;52.892;5.738;2024-02-16T02:13:44;8.27;;;2.22;;
61391;SDS011;47261;52.892;5.738;2024-02-16T02:16:10;11.47;;;2.43;;
61391;SDS011;47261;52.892;5.738;2024-02-16T02:18:36;8.77;;;2.30;;
61391;SDS011;47261;52.892;5.738;2024-02-16T02:21:02;6.00;;;2.00;;
61391;SDS011;47261;52.892;5.738;2024-02-16T02:23:27;5.80;;;1.77;;
61391;SDS011;47261;52.892;5.738;2024-02-16T02:25:53;5.53;;;1.83;;
61391;SDS011;47261;52.892;5.738;2024-02-16T02:28:19;9.50;;;2.57;;
61391;SDS011;47261;52.892;5.738;2024-02-16T02:30:45;12.43;;;2.25;;
61391;SDS011;47261;52.892;5.738;2024-02-16T02:33:12;5.30;;;1.93;;
61391;SDS011;47261;52.892;5.738;2024-02-16T02:35:39;7.53;;;2.17;;
61391;SDS011;47261;52.892;5.738;2024-02-16T02:38:05;8.48;;;1.77;;
61391;SDS011;47261;52.892;5.738;2024-02-16T02:40:31;7.30;;;1.83;;
61391;SDS011;47261;52.892;5.738;2024-02-16T02:42:57;7.27;;;2.03;;
61391;SDS011;47261;52.892;5.738;2024-02-16T02:45:23;6.82;;;1.98;;
61391;SDS011;47261;52.892;5.738;2024-02-16T02:47:49;5.97;;;2.00;;
61391;SDS011;47261;52.892;5.738;2024-02-16T02:50:15;7.43;;;2.13;;
61391;SDS011;47261;52.892;5.738;2024-02-16T02:52:41;9.30;;;2.30;;
61391;SDS011;47261;52.892;5.738;2024-02-16T02:55:07;8.05;;;1.80;;
61391;SDS011;47261;52.892;5.738;2024-02-16T02:57:32;9.80;;;2.67;;
61391;SDS011;47261;52.892;5.738;2024-02-16T03:00:05;8.32;;;2.20;;
61391;SDS011;47261;52.892;5.738;2024-02-16T03:02:35;5.93;;;2.08;;
61391;SDS011;47261;52.892;5.738;2024-02-16T03:05:08;9.40;;;2.10;;
61391;SDS011;47261;52.892;5.738;2024-02-16T03:07:34;5.75;;;1.90;;
61391;SDS011;47261;52.892;5.738;2024-02-16T03:10:00;7.75;;;1.88;;
61391;SDS011;47261;52.892;5.738;2024-02-16T03:12:26;7.68;;;1.88;;
61391;SDS011;47261;52.892;5.738;2024-02-16T03:14:52;5.77;;;1.90;;
61391;SDS011;47261;52.892;5.738;2024-02-16T03:17:18;7.43;;;2.53;;
61391;SDS011;47261;52.892;5.738;2024-02-16T03:19:44;9.63;;;2.47;;
61391;SDS011;47261;52.892;5.738;2024-02-16T03:22:10;10.55;;;2.35;;
61391;SDS011;47261;52.892;5.738;2024-02-16T03:24:35;8.43;;;2.00;;
61391;SDS011;47261;52.892;5.738;2024-02-16T03:27:01;9.02;;;2.50;;
61391;SDS011;47261;52.892;5.738;2024-02-16T03:29:27;6.47;;;2.10;;
61391;SDS011;47261;52.892;5.738;2024-02-16T03:31:53;10.57;;;2.47;;
61391;SDS011;47261;52.892;5.738;2024-02-16T03:34:18;10.37;;;2.50;;
61391;SDS011;47261;52.892;5.738;2024-02-16T03:36:44;7.88;;;2.20;;
61391;SDS011;47261;52.892;5.738;2024-02-16T03:39:09;8.30;;;2.10;;
61391;SDS011;47261;52.892;5.738;2024-02-16T03:41:35;7.10;;;2.50;;
61391;SDS011;47261;52.892;5.738;2024-02-16T03:44:01;6.63;;;2.37;;
61391;SDS011;47261;52.892;5.738;2024-02-16T03:46:27;7.32;;;2.08;;
61391;SDS011;47261;52.892;5.738;2024-02-16T03:48:52;6.93;;;2.00;;
61391;SDS011;47261;52.892;5.738;2024-02-16T03:51:18;7.38;;;2.10;;
61391;SDS011;47261;52.892;5.738;2024-02-16T03:53:44;11.73;;;2.47;;
61391;SDS011;47261;52.892;5.738;2024-02-16T03:56:12;6.60;;;2.30;;
61391;SDS011;47261;52.892;5.738;2024-02-16T03:58:44;7.00;;;2.55;;
61391;SDS011;47261;52.892;5.738;2024-02-16T04:01:09;6.53;;;2.13;;
61391;SDS011;47261;52.892;5.738;2024-02-16T04:03:35;9.63;;;2.50;;
61391;SDS011;47261;52.892;5.738;2024-02-16T04:06:00;10.30;;;2.70;;
61391;SDS011;47261;52.892;5.738;2024-02-16T04:08:29;7.28;;;2.35;;
61391;SDS011;47261;52.892;5.738;2024-02-16T04:10:55;8.97;;;2.47;;
61391;SDS011;47261;52.892;5.738;2024-02-16T04:13:20;7.70;;;2.25;;
61391;SDS011;47261;52.892;5.738;2024-02-16T04:15:46;5.53;;;2.07;;
61391;SDS011;47261;52.892;5.738;2024-02-16T04:18:11;6.93;;;2.50;;
61391;SDS011;47261;52.892;5.738;2024-02-16T04:20:37;5.47;;;2.03;;
61391;SDS011;47261;52.892;5.738;2024-02-16T04:23:03;9.23;;;2.60;;
61391;SDS011;47261;52.892;5.738;2024-02-16T04:25:28;8.68;;;2.60;;
61391;SDS011;47261;52.892;5.738;2024-02-16T04:27:54;9.97;;;2.43;;
61391;SDS011;47261;52.892;5.738;2024-02-16T04:30:20;8.20;;;2.67;;
61391;SDS011;47261;52.892;5.738;2024-02-16T04:32:46;7.45;;;2.95;;
61391;SDS011;47261;52.892;5.738;2024-02-16T04:35:11;6.97;;;2.80;;
61391;SDS011;47261;52.892;5.738;2024-02-16T04:37:38;7.85;;;2.67;;
61391;SDS011;47261;52.892;5.738;2024-02-16T04:40:04;6.93;;;2.43;;
61391;SDS011;47261;52.892;5.738;2024-02-16T04:42:31;7.10;;;2.60;;
61391;SDS011;47261;52.892;5.738;2024-02-16T04:44:57;7.38;;;2.42;;
61391;SDS011;47261;52.892;5.738;2024-02-16T04:47:24;5.77;;;2.10;;
61391;SDS011;47261;52.892;5.738;2024-02-16T04:49:50;6.97;;;2.10;;
61391;SDS011;47261;52.892;5.738;2024-02-16T04:52:16;6.67;;;2.00;;
61391;SDS011;47261;52.892;5.738;2024-02-16T04:54:41;6.43;;;2.27;;
61391;SDS011;47261;52.892;5.738;2024-02-16T04:57:07;6.90;;;2.70;;
61391;SDS011;47261;52.892;5.738;2024-02-16T04:59:33;9.50;;;2.45;;
61391;SDS011;47261;52.892;5.738;2024-02-16T05:01:58;8.53;;;2.57;;
61391;SDS011;47261;52.892;5.738;2024-02-16T05:04:24;6.88;;;1.98;;
61391;SDS011;47261;52.892;5.738;2024-02-16T05:06:49;6.97;;;2.17;;
61391;SDS011;47261;52.892;5.738;2024-02-16T05:09:17;7.18;;;2.28;;
61391;SDS011;47261;52.892;5.738;2024-02-16T05:11:44;7.03;;;1.63;;
61391;SDS011;47261;52.892;5.738;2024-02-16T05:14:10;10.37;;;2.40;;
61391;SDS011;47261;52.892;5.738;2024-02-16T05:16:45;7.03;;;2.45;;
61391;SDS011;47261;52.892;5.738;2024-02-16T05:19:12;5.50;;;1.90;;
61391;SDS011;47261;52.892;5.738;2024-02-16T05:21:38;9.00;;;2.22;;
61391;SDS011;47261;52.892;5.738;2024-02-16T05:24:03;8.03;;;2.53;;
61391;SDS011;47261;52.892;5.738;2024-02-16T05:26:29;7.35;;;2.30;;
61391;SDS011;47261;52.892;5.738;2024-02-16T05:28:55;8.33;;;2.80;;
61391;SDS011;47261;52.892;5.738;2024-02-16T05:31:20;9.93;;;2.08;;
61391;SDS011;47261;52.892;5.738;2024-02-16T05:33:49;6.50;;;2.00;;
61391;SDS011;47261;52.892;5.738;2024-02-16T05:36:16;6.45;;;2.17;;
61391;SDS011;47261;52.892;5.738;2024-02-16T05:38:46;7.68;;;2.17;;
61391;SDS011;47261;52.892;5.738;2024-02-16T05:41:12;7.82;;;2.30;;
61391;SDS011;47261;52.892;5.738;2024-02-16T05:43:38;8.43;;;2.70;;
61391;SDS011;47261;52.892;5.738;2024-02-16T05:46:04;7.20;;;2.20;;
61391;SDS011;47261;52.892;5.738;2024-02-16T05:48:33;6.20;;;2.50;;
61391;SDS011;47261;52.892;5.738;2024-02-16T05:51:02;10.90;;;1.83;;
61391;SDS011;47261;52.892;5.738;2024-02-16T05:53:30;8.00;;;2.50;;
61391;SDS011;47261;52.892;5.738;2024-02-16T05:55:56;7.75;;;1.88;;
61391;SDS011;47261;52.892;5.738;2024-02-16T05:58:23;6.90;;;2.67;;
61391;SDS011;47261;52.892;5.738;2024-02-16T06:00:49;6.83;;;2.37;;
61391;SDS011;47261;52.892;5.738;2024-02-16T06:03:15;5.87;;;2.37;;
61391;SDS011;47261;52.892;5.738;2024-02-16T06:05:41;8.07;;;2.40;;
61391;SDS011;47261;52.892;5.738;2024-02-16T06:08:09;4.03;;;1.40;;
61391;SDS011;47261;52.892;5.738;2024-02-16T06:10:35;6.63;;;1.90;;
61391;SDS011;47261;52.892;5.738;2024-02-16T06:13:01;5.57;;;2.22;;
61391;SDS011;47261;52.892;5.738;2024-02-16T06:15:26;10.90;;;2.47;;
61391;SDS011;47261;52.892;5.738;2024-02-16T06:17:52;5.97;;;2.60;;
61391;SDS011;47261;52.892;5.738;2024-02-16T06:20:18;5.93;;;2.33;;
61391;SDS011;47261;52.892;5.738;2024-02-16T06:22:44;10.20;;;3.05;;
61391;SDS011;47261;52.892;5.738;2024-02-16T06:25:09;8.30;;;2.37;;
61391;SDS011;47261;52.892;5.738;2024-02-16T06:27:35;7.82;;;2.70;;
61391;SDS011;47261;52.892;5.738;2024-02-16T06:30:02;7.53;;;2.30;;
61391;SDS011;47261;52.892;5.738;2024-02-16T06:32:29;8.17;;;2.43;;
61391;SDS011;47261;52.892;5.738;2024-02-16T06:34:56;9.30;;;2.63;;
61391;SDS011;47261;52.892;5.738;2024-02-16T06:37:22;9.07;;;2.55;;
61391;SDS011;47261;52.892;5.738;2024-02-16T06:39:47;7.90;;;2.47;;
61391;SDS011;47261;52.892;5.738;2024-02-16T06:42:13;8.48;;;2.75;;
61391;SDS011;47261;52.892;5.738;2024-02-16T06:44:39;7.30;;;2.80;;
61391;SDS011;47261;52.892;5.738;2024-02-16T06:47:05;5.00;;;1.40;;
61391;SDS011;47261;52.892;5.738;2024-02-16T06:49:31;7.25;;;2.63;;
61391;SDS011;47261;52.892;5.738;2024-02-16T06:51:56;5.07;;;2.10;;
61391;SDS011;47261;52.892;5.738;2024-02-16T06:54:22;7.85;;;2.80;;
61391;SDS011;47261;52.892;5.738;2024-02-16T06:56:49;8.65;;;2.60;;
61391;SDS011;47261;52.892;5.738;2024-02-16T06:59:16;5.77;;;2.40;;
61391;SDS011;47261;52.892;5.738;2024-02-16T07:01:42;8.60;;;2.70;;
61391;SDS011;47261;52.892;5.738;2024-02-16T07:04:08;6.95;;;2.75;;
61391;SDS011;47261;52.892;5.738;2024-02-16T07:06:34;4.30;;;1.40;;
61391;SDS011;47261;52.892;5.738;2024-02-16T07:09:00;6.50;;;2.30;;
61391;SDS011;47261;52.892;5.738;2024-02-16T07:11:26;7.50;;;2.40;;
61391;SDS011;47261;52.892;5.738;2024-02-16T07:13:51;6.43;;;2.30;;
61391;SDS011;47261;52.892;5.738;2024-02-16T07:16:17;7.95;;;2.00;;
61391;SDS011;47261;52.892;5.738;2024-02-16T07:18:43;10.17;;;3.37;;
61391;SDS011;47261;52.892;5.738;2024-02-16T07:21:09;7.60;;;3.25;;
61391;SDS011;47261;52.892;5.738;2024-02-16T07:23:36;7.72;;;2.80;;
61391;SDS011;47261;52.892;5.738;2024-02-16T07:26:02;6.93;;;1.97;;
61391;SDS011;47261;52.892;5.738;2024-02-16T07:28:28;6.60;;;2.53;;
61391;SDS011;47261;52.892;5.738;2024-02-16T07:30:53;8.52;;;2.58;;
61391;SDS011;47261;52.892;5.738;2024-02-16T07:33:20;6.37;;;2.00;;
61391;SDS011;47261;52.892;5.738;2024-02-16T07:35:46;7.55;;;2.40;;
61391;SDS011;47261;52.892;5.738;2024-02-16T07:38:12;6.22;;;2.13;;
61391;SDS011;47261;52.892;5.738;2024-02-16T07:40:38;6.97;;;2.30;;
61391;SDS011;47261;52.892;5.738;2024-02-16T07:43:03;5.43;;;1.67;;
61391;SDS011;47261;52.892;5.738;2024-02-16T07:45:30;6.50;;;2.70;;
61391;SDS011;47261;52.892;5.738;2024-02-16T07:47:56;7.70;;;2.00;;
61391;SDS011;47261;52.892;5.738;2024-02-16T07:50:22;5.82;;;2.25;;
61391;SDS011;47261;52.892;5.738;2024-02-16T07:52:49;7.43;;;2.53;;
61391;SDS011;47261;52.892;5.738;2024-02-16T07:55:15;5.95;;;2.28;;
61391;SDS011;47261;52.892;5.738;2024-02-16T07:57:43;6.00;;;2.47;;
61391;SDS011;47261;52.892;5.738;2024-02-16T08:00:09;12.13;;;3.20;;
61391;SDS011;47261;52.892;5.738;2024-02-16T08:02:36;9.10;;;2.38;;
61391;SDS011;47261;52.892;5.738;2024-02-16T08:05:02;7.38;;;2.33;;
61391;SDS011;47261;52.892;5.738;2024-02-16T08:07:28;9.53;;;2.03;;
61391;SDS011;47261;52.892;5.738;2024-02-16T08:09:53;7.65;;;2.60;;
61391;SDS011;47261;52.892;5.738;2024-02-16T08:12:19;8.88;;;3.00;;
61391;SDS011;47261;52.892;5.738;2024-02-16T08:14:46;6.23;;;2.23;;
61391;SDS011;47261;52.892;5.738;2024-02-16T08:17:11;5.57;;;2.30;;
61391;SDS011;47261;52.892;5.738;2024-02-16T08:19:37;8.10;;;2.33;;
61391;SDS011;47261;52.892;5.738;2024-02-16T08:22:04;7.32;;;2.20;;
61391;SDS011;47261;52.892;5.738;2024-02-16T08:24:34;8.15;;;2.97;;
61391;SDS011;47261;52.892;5.738;2024-02-16T08:27:01;7.55;;;2.70;;
61391;SDS011;47261;52.892;5.738;2024-02-16T08:29:27;8.40;;;2.78;;
61391;SDS011;47261;52.892;5.738;2024-02-16T08:31:54;5.83;;;2.63;;
61391;SDS011;47261;52.892;5.738;2024-02-16T08:34:20;8.48;;;2.60;;
61391;SDS011;47261;52.892;5.738;2024-02-16T08:36:47;6.78;;;2.38;;
61391;SDS011;47261;52.892;5.738;2024-02-16T08:39:15;4.68;;;2.30;;
61391;SDS011;47261;52.892;5.738;2024-02-16T08:41:41;8.02;;;2.65;;
61391;SDS011;47261;52.892;5.738;2024-02-16T08:44:09;7.63;;;3.00;;
61391;SDS011;47261;52.892;5.738;2024-02-16T08:46:38;6.68;;;2.30;;
61391;SDS011;47261;52.892;5.738;2024-02-16T08:49:04;6.97;;;2.58;;
61391;SDS011;47261;52.892;5.738;2024-02-16T08:51:34;8.35;;;3.08;;
61391;SDS011;47261;52.892;5.738;2024-02-16T08:54:00;7.85;;;2.72;;
61391;SDS011;47261;52.892;5.738;2024-02-16T08:56:29;8.50;;;2.67;;
61391;SDS011;47261;52.892;5.738;2024-02-16T08:58:55;7.30;;;3.03;;
61391;SDS011;47261;52.892;5.738;2024-02-16T09:01:32;5.32;;;2.58;;
61391;SDS011;47261;52.892;5.738;2024-02-16T09:03:59;5.37;;;2.30;;
61391;SDS011;47261;52.892;5.738;2024-02-16T09:06:25;6.93;;;2.20;;
61391;SDS011;47261;52.892;5.738;2024-02-16T09:08:51;7.00;;;2.25;;
61391;SDS011;47261;52.892;5.738;2024-02-16T09:11:17;7.83;;;2.93;;
61391;SDS011;47261;52.892;5.738;2024-02-16T09:13:42;8.65;;;3.13;;
61391;SDS011;47261;52.892;5.738;2024-02-16T09:16:08;6.80;;;2.90;;
61391;SDS011;47261;52.892;5.738;2024-02-16T09:18:34;11.32;;;3.35;;
61391;SDS011;47261;52.892;5.738;2024-02-16T09:21:02;6.35;;;2.40;;
61391;SDS011;47261;52.892;5.738;2024-02-16T09:23:28;11.77;;;3.37;;
61391;SDS011;47261;52.892;5.738;2024-02-16T09:25:54;6.30;;;2.53;;
61391;SDS011;47261;52.892;5.738;2024-02-16T09:28:20;8.68;;;3.05;;
61391;SDS011;47261;52.892;5.738;2024-02-16T09:30:49;9.33;;;2.97;;
61391;SDS011;47261;52.892;5.738;2024-02-16T09:33:14;6.97;;;2.85;;
61391;SDS011;47261;52.892;5.738;2024-02-16T09:35:40;7.23;;;3.40;;
61391;SDS011;47261;52.892;5.738;2024-02-16T09:38:06;6.78;;;2.75;;
61391;SDS011;47261;52.892;5.738;2024-02-16T09:40:31;7.75;;;2.70;;
61391;SDS011;47261;52.892;5.738;2024-02-16T09:42:58;6.87;;;2.60;;
61391;SDS011;47261;52.892;5.738;2024-02-16T09:45:24;7.32;;;2.80;;
61391;SDS011;47261;52.892;5.738;2024-02-16T09:47:52;9.13;;;3.45;;
61391;SDS011;47261;52.892;5.738;2024-02-16T09:50:20;6.17;;;2.70;;
61391;SDS011;47261;52.892;5.738;2024-02-16T09:52:49;5.35;;;2.35;;
61391;SDS011;47261;52.892;5.738;2024-02-16T09:55:16;7.05;;;2.65;;
61391;SDS011;47261;52.892;5.738;2024-02-16T09:57:42;6.93;;;2.92;;
61391;SDS011;47261;52.892;5.738;2024-02-16T10:00:09;6.80;;;3.00;;
61391;SDS011;47261;52.892;5.738;2024-02-16T10:02:42;10.77;;;3.07;;
61391;SDS011;47261;52.892;5.738;2024-02-16T10:05:14;7.97;;;3.35;;
61391;SDS011;47261;52.892;5.738;2024-02-16T10:07:41;7.60;;;3.25;;
61391;SDS011;47261;52.892;5.738;2024-02-16T10:10:19;10.48;;;3.35;;
61391;SDS011;47261;52.892;5.738;2024-02-16T10:12:46;9.52;;;4.00;;
61391;SDS011;47261;52.892;5.738;2024-02-16T10:15:18;10.23;;;4.30;;
61391;SDS011;47261;52.892;5.738;2024-02-16T10:17:57;8.55;;;3.72;;
61391;SDS011;47261;52.892;5.738;2024-02-16T10:20:26;9.18;;;3.65;;
61391;SDS011;47261;52.892;5.738;2024-02-16T10:25:37;9.85;;;3.60;;
61391;SDS011;47261;52.892;5.738;2024-02-16T10:28:06;10.60;;;4.18;;
61391;SDS011;47261;52.892;5.738;2024-02-16T10:30:37;8.43;;;3.57;;
61391;SDS011;47261;52.892;5.738;2024-02-16T10:33:07;10.50;;;3.72;;
61391;SDS011;47261;52.892;5.738;2024-02-16T10:35:36;9.30;;;3.88;;
61391;SDS011;47261;52.892;5.738;2024-02-16T10:38:02;12.38;;;5.22;;
61391;SDS011;47261;52.892;5.738;2024-02-16T10:40:39;11.23;;;4.35;;
61391;SDS011;47261;52.892;5.738;2024-02-16T10:43:05;18.33;;;4.90;;
61391;SDS011;47261;52.892;5.738;2024-02-16T10:45:35;21.05;;;6.25;;
61391;SDS011;47261;52.892;5.738;2024-02-16T10:48:05;18.73;;;6.47;;
61391;SDS011;47261;52.892;5.738;2024-02-16T10:50:33;34.60;;;9.65;;
61391;SDS011;47261;52.892;5.738;2024-02-16T10:53:09;29.00;;;8.43;;
61391;SDS011;47261;52.892;5.738;2024-02-16T10:55:41;23.73;;;7.27;;
61391;SDS011;47261;52.892;5.738;2024-02-16T10:58:08;21.63;;;6.80;;
61391;SDS011;47261;52.892;5.738;2024-02-16T11:00:51;24.08;;;7.53;;
61391;SDS011;47261;52.892;5.738;2024-02-16T11:03:26;26.00;;;7.65;;
61391;SDS011;47261;52.892;5.738;2024-02-16T11:05:53;34.55;;;8.77;;
61391;SDS011;47261;52.892;5.738;2024-02-16T11:08:19;23.07;;;5.80;;
61391;SDS011;47261;52.892;5.738;2024-02-16T11:10:55;29.95;;;8.00;;
61391;SDS011;47261;52.892;5.738;2024-02-16T11:13:33;26.67;;;6.78;;
61391;SDS011;47261;52.892;5.738;2024-02-16T11:16:01;25.13;;;8.20;;
61391;SDS011;47261;52.892;5.738;2024-02-16T11:18:28;28.20;;;6.50;;
61391;SDS011;47261;52.892;5.738;2024-02-16T11:20:55;28.37;;;7.43;;
61391;SDS011;47261;52.892;5.738;2024-02-16T11:23:27;25.20;;;7.28;;
61391;SDS011;47261;52.892;5.738;2024-02-16T11:25:54;31.10;;;7.05;;
61391;SDS011;47261;52.892;5.738;2024-02-16T11:28:25;30.27;;;8.15;;
61391;SDS011;47261;52.892;5.738;2024-02-16T11:30:52;23.02;;;8.20;;
61391;SDS011;47261;52.892;5.738;2024-02-16T11:33:17;25.90;;;7.53;;
61391;SDS011;47261;52.892;5.738;2024-02-16T11:35:52;29.97;;;8.37;;
61391;SDS011;47261;52.892;5.738;2024-02-16T11:38:18;20.00;;;6.18;;
61391;SDS011;47261;52.892;5.738;2024-02-16T11:40:52;21.80;;;7.07;;
61391;SDS011;47261;52.892;5.738;2024-02-16T11:43:22;19.83;;;7.07;;
61391;SDS011;47261;52.892;5.738;2024-02-16T11:45:48;15.13;;;5.13;;
61391;SDS011;47261;52.892;5.738;2024-02-16T11:48:18;17.20;;;5.40;;
61391;SDS011;47261;52.892;5.738;2024-02-16T11:50:49;18.73;;;5.00;;
61391;SDS011;47261;52.892;5.738;2024-02-16T11:53:23;8.48;;;2.38;;
61391;SDS011;47261;52.892;5.738;2024-02-16T11:55:49;6.77;;;1.80;;
61391;SDS011;47261;52.892;5.738;2024-02-16T11:58:18;4.57;;;1.25;;
61391;SDS011;47261;52.892;5.738;2024-02-16T12:00:46;4.53;;;1.58;;
61391;SDS011;47261;52.892;5.738;2024-02-16T12:03:21;4.97;;;1.63;;
61391;SDS011;47261;52.892;5.738;2024-02-16T12:08:17;4.28;;;1.20;;
61391;SDS011;47261;52.892;5.738;2024-02-16T12:10:43;6.32;;;1.17;;
61391;SDS011;47261;52.892;5.738;2024-02-16T12:13:09;6.20;;;1.50;;
61391;SDS011;47261;52.892;5.738;2024-02-16T12:15:37;3.72;;;1.50;;
61391;SDS011;47261;52.892;5.738;2024-02-16T12:18:03;3.73;;;1.33;;
61391;SDS011;47261;52.892;5.738;2024-02-16T12:20:29;4.07;;;1.33;;
61391;SDS011;47261;52.892;5.738;2024-02-16T12:22:56;6.50;;;1.95;;
61391;SDS011;47261;52.892;5.738;2024-02-16T12:25:24;4.60;;;1.38;;
61391;SDS011;47261;52.892;5.738;2024-02-16T12:27:50;5.43;;;1.83;;
61391;SDS011;47261;52.892;5.738;2024-02-16T12:30:16;5.43;;;1.70;;
61391;SDS011;47261;52.892;5.738;2024-02-16T12:32:41;4.93;;;1.67;;
61391;SDS011;47261;52.892;5.738;2024-02-16T12:35:07;3.33;;;1.08;;
61391;SDS011;47261;52.892;5.738;2024-02-16T12:37:33;3.42;;;1.10;;
61391;SDS011;47261;52.892;5.738;2024-02-16T12:40:00;4.67;;;1.00;;
61391;SDS011;47261;52.892;5.738;2024-02-16T12:42:26;5.32;;;0.80;;
61391;SDS011;47261;52.892;5.738;2024-02-16T12:44:52;2.30;;;0.77;;
61391;SDS011;47261;52.892;5.738;2024-02-16T12:47:17;3.43;;;0.93;;
61391;SDS011;47261;52.892;5.738;2024-02-16T12:49:43;3.55;;;0.95;;
61391;SDS011;47261;52.892;5.738;2024-02-16T12:52:09;3.20;;;0.93;;
61391;SDS011;47261;52.892;5.738;2024-02-16T12:54:34;3.80;;;1.07;;
61391;SDS011;47261;52.892;5.738;2024-02-16T12:57:00;4.60;;;0.70;;
61391;SDS011;47261;52.892;5.738;2024-02-16T12:59:26;4.27;;;1.00;;
61391;SDS011;47261;52.892;5.738;2024-02-16T13:01:51;4.45;;;1.05;;
61391;SDS011;47261;52.892;5.738;2024-02-16T13:04:17;5.07;;;1.33;;
61391;SDS011;47261;52.892;5.738;2024-02-16T13:06:46;5.45;;;1.30;;
61391;SDS011;47261;52.892;5.738;2024-02-16T13:09:12;6.00;;;1.38;;
61391;SDS011;47261;52.892;5.738;2024-02-16T13:11:38;9.33;;;1.80;;
61391;SDS011;47261;52.892;5.738;2024-02-16T13:14:05;7.47;;;2.70;;
61391;SDS011;47261;52.892;5.738;2024-02-16T13:16:31;6.55;;;2.05;;
61391;SDS011;47261;52.892;5.738;2024-02-16T13:18:57;8.07;;;2.60;;
61391;SDS011;47261;52.892;5.738;2024-02-16T13:21:22;5.97;;;2.08;;
61391;SDS011;47261;52.892;5.738;2024-02-16T13:23:48;7.87;;;2.60;;
61391;SDS011;47261;52.892;5.738;2024-02-16T13:26:14;6.50;;;1.88;;
61391;SDS011;47261;52.892;5.738;2024-02-16T13:28:42;6.47;;;1.97;;
61391;SDS011;47261;52.892;5.738;2024-02-16T13:31:08;5.90;;;2.28;;
61391;SDS011;47261;52.892;5.738;2024-02-16T13:33:36;9.70;;;3.30;;
61391;SDS011;47261;52.892;5.738;2024-02-16T13:36:02;5.77;;;2.47;;
61391;SDS011;47261;52.892;5.738;2024-02-16T13:38:29;10.02;;;2.80;;
61391;SDS011;47261;52.892;5.738;2024-02-16T13:40:54;7.68;;;2.30;;
61391;SDS011;47261;52.892;5.738;2024-02-16T13:43:20;13.93;;;3.10;;
61391;SDS011;47261;52.892;5.738;2024-02-16T13:45:49;10.60;;;2.50;;
61391;SDS011;47261;52.892;5.738;2024-02-16T13:48:19;6.13;;;2.28;;
61391;SDS011;47261;52.892;5.738;2024-02-16T13:50:48;10.70;;;2.83;;
61391;SDS011;47261;52.892;5.738;2024-02-16T13:53:15;7.97;;;2.90;;
61391;SDS011;47261;52.892;5.738;2024-02-16T13:55:41;10.18;;;2.92;;
61391;SDS011;47261;52.892;5.738;2024-02-16T13:58:08;8.05;;;2.30;;
61391;SDS011;47261;52.892;5.738;2024-02-16T14:00:37;9.20;;;2.67;;
61391;SDS011;47261;52.892;5.738;2024-02-16T14:03:04;7.70;;;2.30;;
61391;SDS011;47261;52.892;5.738;2024-02-16T14:05:34;10.38;;;2.58;;
61391;SDS011;47261;52.892;5.738;2024-02-16T14:08:03;10.70;;;4.07;;
61391;SDS011;47261;52.892;5.738;2024-02-16T14:10:29;14.57;;;4.65;;
61391;SDS011;47261;52.892;5.738;2024-02-16T14:12:57;9.65;;;3.47;;
61391;SDS011;47261;52.892;5.738;2024-02-16T14:15:23;19.20;;;5.18;;
61391;SDS011;47261;52.892;5.738;2024-02-16T14:17:48;20.70;;;4.90;;
61391;SDS011;47261;52.892;5.738;2024-02-16T14:20:14;13.38;;;4.22;;
61391;SDS011;47261;52.892;5.738;2024-02-16T14:22:40;12.70;;;3.83;;
61391;SDS011;47261;52.892;5.738;2024-02-16T14:25:06;10.68;;;4.00;;
61391;SDS011;47261;52.892;5.738;2024-02-16T14:27:31;11.32;;;3.90;;
61391;SDS011;47261;52.892;5.738;2024-02-16T14:29:58;8.13;;;2.67;;
61391;SDS011;47261;52.892;5.738;2024-02-16T14:32:24;13.38;;;4.13;;
61391;SDS011;47261;52.892;5.738;2024-02-16T14:34:50;13.93;;;4.43;;
61391;SDS011;47261;52.892;5.738;2024-02-16T14:37:16;9.40;;;2.95;;
61391;SDS011;47261;52.892;5.738;2024-02-16T14:39:42;7.95;;;3.45;;
61391;SDS011;47261;52.892;5.738;2024-02-16T14:42:08;10.07;;;3.20;;
61391;SDS011;47261;52.892;5.738;2024-02-16T14:44:33;10.70;;;3.65;;
61391;SDS011;47261;52.892;5.738;2024-02-16T14:46:59;9.20;;;3.07;;
61391;SDS011;47261;52.892;5.738;2024-02-16T14:49:24;12.10;;;3.57;;